createdAt,value
2023-03-27T00:00:35.597Z,2.20
2023-03-27T00:03:07.238Z,0.28
2023-03-27T00:05:38.865Z,0.15
2023-03-27T00:08:10.500Z,2.28
2023-03-27T00:10:42.054Z,2.42
2023-03-27T00:13:13.605Z,0.67
2023-03-27T00:15:46.152Z,1.93
2023-03-27T00:18:18.008Z,2.25
2023-03-27T00:20:49.610Z,2.10
2023-03-27T00:23:22.390Z,1.13
2023-03-27T00:25:54.459Z,0.77
2023-03-27T00:28:28.763Z,4.10
2023-03-27T00:31:00.741Z,1.98
2023-03-27T00:33:32.403Z,1.35
2023-03-27T00:36:04.288Z,1.90
2023-03-27T00:38:36.697Z,0.32
2023-03-27T00:43:43.882Z,1.15
2023-03-27T00:46:15.619Z,0.82
2023-03-27T00:48:51.495Z,0.85
2023-03-27T00:51:26.559Z,0.05
2023-03-27T00:53:58.963Z,0.57
2023-03-27T00:59:05.358Z,0.20
2023-03-27T01:01:37.469Z,1.60
2023-03-27T01:04:09.673Z,0.45
2023-03-27T01:06:42.399Z,0.68
2023-03-27T01:09:20.297Z,0.93
2023-03-27T01:12:19.025Z,1.27
2023-03-27T01:14:57.646Z,0.60
2023-03-27T01:17:42.817Z,0.70
2023-03-27T01:21:00.354Z,0.30
2023-03-27T01:23:59.385Z,3.20
2023-03-27T01:26:38.227Z,0.40
2023-03-27T01:29:30.433Z,1.92
2023-03-27T01:32:34.944Z,0.88
2023-03-27T01:35:31.271Z,0.43
2023-03-27T01:38:21.098Z,0.30
2023-03-27T01:41:04.967Z,0.85
2023-03-27T01:43:51.538Z,0.20
2023-03-27T01:46:29.332Z,0.50
2023-03-27T01:49:10.369Z,0.20
2023-03-27T01:51:46.977Z,0.10
2023-03-27T01:54:30.822Z,0.85
2023-03-27T01:57:24.220Z,0.20
2023-03-27T02:00:17.429Z,0.15
2023-03-27T02:02:59.758Z,0.30
2023-03-27T02:05:48.051Z,2.17
2023-03-27T02:08:39.563Z,0.10
2023-03-27T02:11:11.191Z,2.28
2023-03-27T02:13:46.686Z,0.17
2023-03-27T02:16:23.126Z,0.30
2023-03-27T02:18:59.725Z,0.10
2023-03-27T02:21:34.346Z,1.25
2023-03-27T02:24:06.360Z,0.93
2023-03-27T02:26:37.934Z,0.20
2023-03-27T02:29:24.870Z,0.60
2023-03-27T02:32:12.595Z,0.98
2023-03-27T02:34:58.801Z,0.13
2023-03-27T02:37:42.777Z,0.50
2023-03-27T02:40:39.752Z,0.30
2023-03-27T02:43:19.690Z,0.15
2023-03-27T02:45:57.410Z,0.57
2023-03-27T02:48:40.755Z,0.20
2023-03-27T02:51:18.246Z,0.30
2023-03-27T02:54:04.704Z,2.50
2023-03-27T02:56:43.551Z,0.10
2023-03-27T02:59:27.257Z,0.10
2023-03-27T03:01:58.921Z,0.00
2023-03-27T03:04:41.831Z,1.17
2023-03-27T03:07:14.424Z,0.60
2023-03-27T03:09:46.002Z,0.13
2023-03-27T03:12:17.557Z,0.20
2023-03-27T03:14:49.134Z,0.10
2023-03-27T03:17:20.624Z,0.28
2023-03-27T03:19:52.097Z,1.77
2023-03-27T03:22:23.602Z,0.43
2023-03-27T03:24:55.083Z,0.63
2023-03-27T03:27:29.205Z,0.20
2023-03-27T03:30:01.119Z,0.47
2023-03-27T03:32:34.059Z,0.80
2023-03-27T03:35:06.350Z,2.30
2023-03-27T03:37:38.884Z,0.10
2023-03-27T03:40:12.054Z,0.40
2023-03-27T03:42:45.717Z,0.20
2023-03-27T03:45:17.970Z,0.60
2023-03-27T03:47:49.609Z,0.80
2023-03-27T03:50:21.163Z,0.10
2023-03-27T03:52:52.789Z,0.30
2023-03-27T03:55:25.659Z,0.95
2023-03-27T03:57:57.188Z,0.65
2023-03-27T04:00:28.839Z,0.22
2023-03-27T04:03:00.725Z,0.40
2023-03-27T04:05:32.425Z,0.40
2023-03-27T04:08:08.460Z,1.88
2023-03-27T04:10:41.345Z,0.55
2023-03-27T04:13:12.961Z,0.40
2023-03-27T04:15:44.525Z,0.95
2023-03-27T04:18:16.418Z,0.20
2023-03-27T04:20:50.771Z,0.65
2023-03-27T04:23:22.277Z,0.38
2023-03-27T04:25:53.760Z,0.27
2023-03-27T04:28:26.502Z,1.50
2023-03-27T04:30:58.319Z,0.28
2023-03-27T04:33:30.817Z,2.58
2023-03-27T04:36:07.314Z,0.63
2023-03-27T04:38:40.822Z,0.93
2023-03-27T04:41:12.324Z,1.02
2023-03-27T04:43:46.152Z,0.20
2023-03-27T04:46:17.770Z,1.85
2023-03-27T04:48:49.327Z,0.38
2023-03-27T04:51:20.913Z,3.83
2023-03-27T04:53:52.770Z,0.83
2023-03-27T04:56:25.066Z,0.55
2023-03-27T04:58:56.578Z,0.05
2023-03-27T05:01:28.741Z,0.60
2023-03-27T05:04:04.339Z,0.08
2023-03-27T05:06:35.845Z,1.75
2023-03-27T05:09:07.484Z,0.33
2023-03-27T05:11:38.977Z,0.15
2023-03-27T05:14:10.542Z,0.27
2023-03-27T05:16:42.402Z,0.57
2023-03-27T05:19:13.925Z,0.20
2023-03-27T05:21:49.082Z,0.40
2023-03-27T05:24:21.018Z,0.60
2023-03-27T05:26:52.494Z,0.22
2023-03-27T05:29:23.993Z,0.67
2023-03-27T05:31:55.550Z,0.50
2023-03-27T05:34:28.643Z,0.60
2023-03-27T05:37:05.693Z,1.45
2023-03-27T05:39:37.905Z,1.20
2023-03-27T05:42:09.598Z,1.52
2023-03-27T05:44:43.393Z,0.40
2023-03-27T05:47:15.284Z,0.60
2023-03-27T05:49:46.776Z,0.75
2023-03-27T05:52:18.422Z,0.93
2023-03-27T05:54:50.071Z,1.50
2023-03-27T05:57:21.596Z,1.05
2023-03-27T05:59:53.967Z,0.60
2023-03-27T06:04:59.128Z,0.57
2023-03-27T06:07:30.740Z,0.40
2023-03-27T06:10:02.963Z,0.60
2023-03-27T06:12:36.795Z,0.40
2023-03-27T06:15:09.710Z,0.40
2023-03-27T06:17:42.794Z,1.08
2023-03-27T06:20:15.549Z,1.63
2023-03-27T06:22:49.995Z,0.77
2023-03-27T06:25:23.742Z,0.32
2023-03-27T06:27:55.751Z,0.25
2023-03-27T06:30:28.958Z,0.82
2023-03-27T06:33:00.887Z,0.35
2023-03-27T06:35:33.550Z,1.35
2023-03-27T06:38:06.423Z,0.85
2023-03-27T06:40:38.226Z,0.30
2023-03-27T06:43:10.230Z,0.43
2023-03-27T06:45:45.050Z,1.42
2023-03-27T06:48:21.317Z,1.35
2023-03-27T06:50:54.029Z,0.63
2023-03-27T06:53:27.759Z,0.95
2023-03-27T06:56:00.247Z,0.95
2023-03-27T06:58:31.973Z,1.20
2023-03-27T07:01:03.587Z,1.37
2023-03-27T07:03:35.118Z,1.00
2023-03-27T07:06:07.438Z,3.03
2023-03-27T07:11:12.426Z,1.88
2023-03-27T07:13:44.345Z,0.45
2023-03-27T07:16:16.345Z,0.43
2023-03-27T07:18:47.858Z,0.65
2023-03-27T07:21:20.802Z,1.17
2023-03-27T07:23:53.557Z,0.05
2023-03-27T07:26:25.176Z,1.55
2023-03-27T07:28:58.482Z,0.10
2023-03-27T07:31:51.049Z,0.15
2023-03-27T07:34:23.911Z,0.20
2023-03-27T07:36:57.507Z,0.28
2023-03-27T07:39:28.988Z,1.00
2023-03-27T07:42:00.536Z,0.70
2023-03-27T07:44:32.054Z,0.80
2023-03-27T07:47:03.567Z,0.80
2023-03-27T07:49:39.674Z,1.10
2023-03-27T07:52:13.261Z,0.75
2023-03-27T07:54:48.062Z,1.60
2023-03-27T07:57:19.639Z,3.33
2023-03-27T07:59:54.874Z,7.50
2023-03-27T08:02:27.298Z,3.38
2023-03-27T08:07:31.036Z,5.22
2023-03-27T08:10:04.621Z,6.72
2023-03-27T08:12:36.871Z,7.70
2023-03-27T08:15:10.431Z,11.80
2023-03-27T08:17:42.038Z,6.82
2023-03-27T08:20:15.357Z,3.53
2023-03-27T08:22:47.075Z,7.38
2023-03-27T08:25:18.835Z,3.92
2023-03-27T08:27:50.784Z,4.53
2023-03-27T08:30:23.676Z,4.38
2023-03-27T08:32:56.085Z,3.88
2023-03-27T08:35:27.720Z,9.57
2023-03-27T08:37:59.357Z,10.40
2023-03-27T08:40:33.910Z,11.70
2023-03-27T08:43:14.596Z,13.45
2023-03-27T08:45:55.867Z,10.80
2023-03-27T08:48:39.442Z,13.50
2023-03-27T08:51:52.499Z,6.40
2023-03-27T08:57:18.664Z,7.78
2023-03-27T08:59:59.984Z,11.88
2023-03-27T09:02:52.855Z,13.18
2023-03-27T09:05:37.100Z,13.35
2023-03-27T09:08:25.743Z,17.70
2023-03-27T09:11:21.775Z,11.43
2023-03-27T09:13:53.825Z,14.52
2023-03-27T09:16:34.589Z,12.10
2023-03-27T09:19:20.261Z,10.57
2023-03-27T09:21:58.076Z,11.25
2023-03-27T09:24:39.254Z,9.07
2023-03-27T09:27:23.254Z,12.23
2023-03-27T09:30:05.505Z,3.75
2023-03-27T09:32:43.007Z,6.15
2023-03-27T09:35:15.787Z,12.60
2023-03-27T09:37:58.661Z,9.05
2023-03-27T09:40:42.872Z,11.70
2023-03-27T09:43:18.665Z,7.75
2023-03-27T09:45:53.529Z,4.35
2023-03-27T09:48:50.195Z,6.97
2023-03-27T09:51:41.928Z,8.70
2023-03-27T09:54:17.764Z,12.80
2023-03-27T09:56:51.920Z,14.73
2023-03-27T09:59:29.508Z,13.50
2023-03-27T10:02:21.577Z,10.60
2023-03-27T10:05:18.452Z,10.70
2023-03-27T10:07:50.088Z,7.18
2023-03-27T10:10:21.833Z,10.77
2023-03-27T10:12:57.166Z,6.72
2023-03-27T10:15:46.927Z,8.02
2023-03-27T10:18:27.689Z,8.23
2023-03-27T10:21:02.449Z,12.32
2023-03-27T10:23:49.687Z,9.80
2023-03-27T10:26:26.834Z,14.77
2023-03-27T10:29:05.069Z,7.72
2023-03-27T10:31:40.162Z,13.00
2023-03-27T10:34:51.510Z,7.53
2023-03-27T10:37:31.676Z,12.73
2023-03-27T10:40:09.430Z,5.65
2023-03-27T10:42:41.321Z,7.47
2023-03-27T10:45:19.674Z,5.80
2023-03-27T10:47:59.186Z,6.95
2023-03-27T10:50:53.338Z,4.50
2023-03-27T10:53:47.679Z,9.30
2023-03-27T10:56:31.644Z,8.07
2023-03-27T10:59:14.118Z,7.82
2023-03-27T11:01:52.559Z,11.65
2023-03-27T11:04:30.445Z,9.20
2023-03-27T11:07:05.499Z,7.63
2023-03-27T11:09:45.497Z,9.07
2023-03-27T11:12:20.628Z,4.40
2023-03-27T11:14:55.085Z,6.80
2023-03-27T11:17:36.196Z,9.90
2023-03-27T11:20:21.132Z,10.35
2023-03-27T11:23:04.562Z,13.48
2023-03-27T11:25:46.864Z,6.93
2023-03-27T11:28:43.427Z,4.85
2023-03-27T11:31:39.311Z,8.35
2023-03-27T11:34:29.273Z,5.85
2023-03-27T11:37:15.573Z,2.70
2023-03-27T11:39:53.931Z,3.78
2023-03-27T11:42:32.395Z,7.63
2023-03-27T11:45:07.324Z,7.93
2023-03-27T11:47:41.791Z,2.83
2023-03-27T11:50:22.811Z,6.13
2023-03-27T11:53:23.972Z,5.32
2023-03-27T11:56:08.805Z,9.18
2023-03-27T11:58:42.861Z,6.45
2023-03-27T12:01:32.315Z,4.93
2023-03-27T12:04:06.911Z,4.20
2023-03-27T12:07:06.794Z,4.53
2023-03-27T12:09:57.007Z,8.27
2023-03-27T12:13:08.014Z,3.33
2023-03-27T12:16:08.436Z,2.97
2023-03-27T12:19:17.287Z,3.03
2023-03-27T12:25:36.205Z,6.68
2023-03-27T12:28:40.139Z,5.13
2023-03-27T12:31:36.629Z,2.80
2023-03-27T12:34:38.931Z,7.78
2023-03-27T12:37:13.524Z,2.78
2023-03-27T12:39:54.083Z,3.80
2023-03-27T12:43:03.749Z,3.47
2023-03-27T12:45:44.155Z,3.45
2023-03-27T12:48:22.612Z,3.92
2023-03-27T12:50:56.720Z,1.88
2023-03-27T12:53:28.482Z,4.00
2023-03-27T12:56:17.963Z,3.20
2023-03-27T12:58:56.353Z,6.72
2023-03-27T13:01:51.859Z,4.45
2023-03-27T13:04:32.875Z,5.07
2023-03-27T13:07:12.937Z,1.77
2023-03-27T13:10:26.577Z,3.00
2023-03-27T13:13:19.366Z,2.45
2023-03-27T13:18:46.725Z,3.83
2023-03-27T13:21:37.135Z,6.45
2023-03-27T13:24:27.759Z,9.82
2023-03-27T13:27:22.017Z,2.33
2023-03-27T13:29:53.986Z,3.83
2023-03-27T13:32:40.219Z,5.97
2023-03-27T13:35:21.350Z,1.73
2023-03-27T13:37:58.159Z,7.20
2023-03-27T13:40:48.646Z,2.75
2023-03-27T13:43:27.947Z,2.15
2023-03-27T13:46:02.972Z,4.43
2023-03-27T13:49:01.663Z,2.25
2023-03-27T13:52:00.612Z,2.78
2023-03-27T13:55:19.868Z,5.88
2023-03-27T13:58:09.405Z,2.75
2023-03-27T14:00:44.829Z,3.28
2023-03-27T14:03:49.973Z,7.82
2023-03-27T14:06:27.495Z,6.78
2023-03-27T14:09:10.888Z,3.72
2023-03-27T14:12:01.401Z,3.78
2023-03-27T14:14:57.796Z,4.97
2023-03-27T14:17:40.856Z,2.85
2023-03-27T14:20:19.122Z,3.33
2023-03-27T14:23:19.171Z,3.92
2023-03-27T14:26:18.590Z,3.53
2023-03-27T14:28:57.383Z,4.03
2023-03-27T14:31:35.508Z,5.15
2023-03-27T14:34:09.991Z,1.75
2023-03-27T14:36:46.037Z,4.72
2023-03-27T14:39:21.972Z,2.35
2023-03-27T14:41:58.001Z,3.70
2023-03-27T14:44:32.813Z,3.13
2023-03-27T14:47:09.885Z,1.23
2023-03-27T14:49:45.894Z,2.38
2023-03-27T14:52:30.169Z,2.83
2023-03-27T14:55:04.967Z,1.85
2023-03-27T14:57:38.749Z,2.15
2023-03-27T15:00:21.559Z,5.25
2023-03-27T15:02:55.030Z,1.88
2023-03-27T15:05:27.140Z,2.53
2023-03-27T15:07:59.969Z,4.65
2023-03-27T15:10:32.680Z,2.50
2023-03-27T15:13:04.175Z,2.20
2023-03-27T15:15:42.803Z,3.30
2023-03-27T15:18:25.740Z,2.72
2023-03-27T15:21:04.141Z,1.45
2023-03-27T15:23:42.399Z,0.20
2023-03-27T15:26:24.374Z,1.60
2023-03-27T15:29:07.593Z,2.70
2023-03-27T15:31:43.163Z,2.08
2023-03-27T15:34:34.518Z,3.95
2023-03-27T15:37:12.972Z,1.50
2023-03-27T15:42:45.072Z,1.50
2023-03-27T15:45:19.961Z,0.88
2023-03-27T15:48:01.254Z,2.60
2023-03-27T15:50:33.970Z,4.27
2023-03-27T15:53:08.556Z,3.85
2023-03-27T15:55:47.657Z,1.73
2023-03-27T15:58:28.470Z,2.22
2023-03-27T16:01:03.230Z,2.17
2023-03-27T16:03:51.635Z,2.80
2023-03-27T16:06:45.829Z,2.60
2023-03-27T16:09:27.184Z,1.05
2023-03-27T16:11:58.890Z,2.47
2023-03-27T16:14:32.002Z,2.35
2023-03-27T16:17:12.416Z,4.75
2023-03-27T16:19:48.414Z,2.53
2023-03-27T16:22:29.158Z,6.85
2023-03-27T16:25:02.120Z,6.07
2023-03-27T16:27:46.034Z,4.55
2023-03-27T16:30:23.499Z,2.28
2023-03-27T16:32:55.813Z,6.70
2023-03-27T16:37:59.892Z,5.22
2023-03-27T16:40:31.569Z,3.88
2023-03-27T16:43:03.134Z,6.38
2023-03-27T16:45:35.951Z,3.43
2023-03-27T16:48:08.298Z,1.50
2023-03-27T16:53:16.336Z,4.25
2023-03-27T16:55:50.886Z,3.13
2023-03-27T16:58:24.444Z,2.13
2023-03-27T17:00:56.010Z,3.55
2023-03-27T17:03:27.711Z,6.63
2023-03-27T17:06:05.005Z,2.13
2023-03-27T17:08:36.817Z,4.05
2023-03-27T17:11:11.811Z,8.10
2023-03-27T17:13:46.152Z,5.05
2023-03-27T17:16:17.663Z,3.20
2023-03-27T17:18:49.293Z,5.67
2023-03-27T17:21:20.840Z,4.18
2023-03-27T17:23:54.216Z,5.35
2023-03-27T17:26:29.330Z,5.18
2023-03-27T17:29:03.317Z,8.32
2023-03-27T17:31:35.381Z,2.78
2023-03-27T17:34:08.007Z,4.75
2023-03-27T17:36:47.178Z,3.40
2023-03-27T17:39:26.957Z,9.90
2023-03-27T17:41:58.452Z,9.55
2023-03-27T17:44:29.906Z,8.50
2023-03-27T17:47:01.417Z,7.70
2023-03-27T17:49:34.449Z,9.73
2023-03-27T17:52:10.975Z,6.43
2023-03-27T17:54:42.537Z,6.30
2023-03-27T17:57:14.238Z,8.00
2023-03-27T17:59:48.557Z,6.93
2023-03-27T18:02:21.516Z,7.72
2023-03-27T18:04:53.178Z,4.00
2023-03-27T18:07:24.784Z,4.90
2023-03-27T18:09:56.353Z,5.40
2023-03-27T18:12:28.471Z,10.40
2023-03-27T18:15:00.307Z,6.20
2023-03-27T18:17:34.769Z,6.22
2023-03-27T18:20:10.580Z,4.22
2023-03-27T18:22:42.238Z,6.22
2023-03-27T18:25:13.775Z,9.90
2023-03-27T18:27:45.895Z,23.23
2023-03-27T18:30:18.041Z,7.32
2023-03-27T18:32:50.046Z,5.25
2023-03-27T18:35:22.941Z,3.78
2023-03-27T18:37:57.310Z,5.60
2023-03-27T18:40:28.894Z,3.90
2023-03-27T18:43:00.912Z,13.75
2023-03-27T18:45:32.564Z,10.55
2023-03-27T18:48:05.528Z,9.55
2023-03-27T18:50:38.142Z,12.27
2023-03-27T18:53:09.748Z,4.50
2023-03-27T18:55:41.493Z,5.75
2023-03-27T18:58:13.116Z,3.20
2023-03-27T19:00:45.334Z,2.60
2023-03-27T19:03:20.211Z,2.75
2023-03-27T19:05:53.298Z,1.15
2023-03-27T19:08:27.090Z,1.92
2023-03-27T19:10:58.861Z,2.80
2023-03-27T19:13:30.921Z,1.90
2023-03-27T19:16:02.568Z,1.38
2023-03-27T19:18:47.110Z,1.20
2023-03-27T19:21:18.706Z,2.35
2023-03-27T19:23:50.568Z,1.25
2023-03-27T19:26:22.253Z,4.13
2023-03-27T19:28:53.939Z,3.50
2023-03-27T19:31:27.346Z,1.80
2023-03-27T19:33:59.166Z,1.35
2023-03-27T19:36:31.736Z,2.20
2023-03-27T19:39:04.583Z,3.13
2023-03-27T19:41:36.468Z,0.98
2023-03-27T19:44:08.079Z,1.58
2023-03-27T19:46:40.296Z,1.25
2023-03-27T19:49:16.165Z,1.30
2023-03-27T19:51:48.278Z,1.75
2023-03-27T19:54:19.859Z,2.15
2023-03-27T19:56:52.108Z,2.95
2023-03-27T20:02:03.054Z,4.45
2023-03-27T20:04:34.677Z,1.60
2023-03-27T20:07:07.721Z,3.22
2023-03-27T20:09:39.627Z,2.40
2023-03-27T20:12:12.753Z,1.40
2023-03-27T20:14:51.362Z,1.10
2023-03-27T20:17:33.747Z,2.30
2023-03-27T20:20:07.559Z,2.67
2023-03-27T20:22:54.311Z,4.40
2023-03-27T20:25:33.379Z,1.52
2023-03-27T20:28:06.280Z,2.65
2023-03-27T20:30:39.293Z,1.48
2023-03-27T20:33:10.867Z,3.30
2023-03-27T20:35:42.495Z,8.23
2023-03-27T20:38:14.991Z,1.17
2023-03-27T20:43:27.099Z,3.78
2023-03-27T20:45:59.067Z,4.82
2023-03-27T20:48:40.433Z,3.13
2023-03-27T20:51:17.544Z,5.35
2023-03-27T20:53:54.202Z,9.80
2023-03-27T20:56:26.063Z,3.65
2023-03-27T20:58:57.659Z,5.85
2023-03-27T21:01:29.388Z,4.15
2023-03-27T21:04:02.616Z,3.65
2023-03-27T21:06:34.168Z,3.60
2023-03-27T21:09:07.469Z,6.13
2023-03-27T21:11:39.398Z,4.15
2023-03-27T21:14:11.144Z,2.72
2023-03-27T21:16:43.164Z,4.57
2023-03-27T21:19:14.883Z,4.90
2023-03-27T21:21:46.405Z,5.68
2023-03-27T21:24:19.708Z,1.95
2023-03-27T21:26:51.266Z,2.30
2023-03-27T21:29:25.145Z,5.10
2023-03-27T21:31:56.702Z,3.85
2023-03-27T21:34:28.298Z,2.67
2023-03-27T21:36:59.893Z,5.67
2023-03-27T21:39:31.446Z,4.63
2023-03-27T21:42:03.014Z,3.00
2023-03-27T21:44:34.570Z,4.75
2023-03-27T21:47:06.113Z,5.03
2023-03-27T21:49:37.722Z,2.17
2023-03-27T21:52:09.850Z,3.65
2023-03-27T21:54:47.423Z,7.25
2023-03-27T21:57:28.000Z,6.45
2023-03-27T21:59:59.646Z,3.90
2023-03-27T22:02:31.305Z,4.47
2023-03-27T22:05:03.137Z,8.13
2023-03-27T22:07:34.925Z,2.63
2023-03-27T22:10:07.000Z,2.05
2023-03-27T22:12:39.397Z,0.52
2023-03-27T22:17:42.497Z,3.95
2023-03-27T22:20:17.286Z,6.32
2023-03-27T22:22:48.929Z,2.30
2023-03-27T22:25:20.558Z,3.60
2023-03-27T22:27:52.425Z,1.90
2023-03-27T22:30:24.080Z,1.77
2023-03-27T22:32:55.732Z,2.85
2023-03-27T22:35:27.572Z,1.92
2023-03-27T22:37:59.303Z,5.28
2023-03-27T22:40:31.119Z,2.25
2023-03-27T22:43:02.768Z,1.80
2023-03-27T22:45:37.263Z,5.53
2023-03-27T22:48:10.046Z,2.50
2023-03-27T22:50:42.771Z,3.60
2023-03-27T22:53:14.390Z,2.15
2023-03-27T22:55:50.155Z,4.10
2023-03-27T22:58:22.148Z,3.78
2023-03-27T23:00:54.905Z,2.28
2023-03-27T23:03:27.601Z,3.60
2023-03-27T23:05:59.800Z,2.90
2023-03-27T23:08:31.500Z,6.47
2023-03-27T23:11:05.495Z,6.73
2023-03-27T23:13:37.299Z,2.10
2023-03-27T23:16:09.834Z,2.22
2023-03-27T23:18:41.643Z,2.53
2023-03-27T23:21:16.468Z,1.98
2023-03-27T23:23:47.974Z,4.05
2023-03-27T23:26:19.568Z,2.33
2023-03-27T23:28:51.267Z,2.35
2023-03-27T23:31:22.814Z,6.70
2023-03-27T23:33:54.367Z,2.90
2023-03-27T23:36:26.005Z,1.50
2023-03-27T23:38:57.530Z,3.53
2023-03-27T23:41:29.573Z,2.47
2023-03-27T23:44:01.258Z,2.58
2023-03-27T23:46:33.844Z,2.22
2023-03-27T23:49:05.542Z,3.00
2023-03-27T23:51:37.119Z,3.05
2023-03-27T23:54:08.883Z,2.63
2023-03-27T23:56:40.642Z,4.53
2023-03-27T23:59:12.258Z,4.63
